Weather History for Breckenridge, TX

Change the Weather History Date:

Tuesday, June 25, 2013

  Actual Average (KABI) Record (KABI)
Temperature  
Mean Temperature 88 °F 81 °F  
Max Temperature 100 °F 92 °F 106 °F (1902)
Min Temperature 77 °F 70 °F 55 °F (1940)
Degree Days  
Heating Degree Days 0 0  
Month to date heating degree days 0  
Since 1 June heating degree days 0  
Since 1 July heating degree days 2558  
Cooling Degree Days 24 16  
Month to date cooling degree days 353  
Year to date cooling degree days 750  
Since 1 June cooling degree days 353  
Growing Degree Days 38 (Base 50)    
Moisture  
Dew Point 63 °F    
Average Humidity 44    
Maximum Humidity 70    
Minimum Humidity 23    
Precipitation  
Precipitation 0.00 in 0.09 in 1.76 in (1938)
Month to date precipitation 3.14  
Year to date precipitation 12.08  
Sea Level Pressure  
Sea Level Pressure 29.89 in    
Wind  
Wind Speed 14 mph (South)    
Max Wind Speed 22 mph    
Max Gust Speed 30 mph    
Visibility 10 miles    
Events      
T = Trace of Precipitation, MM = Missing Value Source: NWS Daily Summary

Daily Weather History Graph

Daily Weather History Graph

Search for Another Location

Airport:

Trip Planner

Search our weather history database for the weather conditions in past years. The results will help you decide how hot, cold, wet, or windy it might be!

Date:

Astronomy

Jun. 25, 2013 Rise Set
Actual Time 6:29 AM CDT 8:47 PM CDT
Civil Twilight 6:00 AM CDT 9:15 PM CDT
Nautical Twilight 5:25 AM CDT 9:50 PM CDT
Astronomical Twilight 4:47 AM CDT 10:28 PM CDT
Moon 10:44 PM CDT (6/25) 9:02 AM CDT (6/25)
Length of Visible Light 15h 15m
Length of Day
14h 18m
Waning Gibbous, 92% of the Moon is Illuminated
Jun 25
Waning Gibbous
Jun 29
Last Quarter
Jul 8
New
Jul 15
First Quarter
Jul 22
Full

Hourly Weather History & Observations

Time (CDT) Temp. Heat Index Dew Point Humidity Pressure Visibility Wind Dir Wind Speed Gust Speed Precip Events Conditions
12:15 AM 84.6 °F 84.6 °F 60.4 °F 44% 29.93 in 10.0 mi SSE 10.4 mph - N/A   Clear
12:35 AM 84.2 °F 84.4 °F 60.4 °F 45% 29.93 in 10.0 mi SSE 10.4 mph - N/A   Clear
12:55 AM 84.6 °F 84.8 °F 61.0 °F 45% 29.92 in 10.0 mi SSE 13.8 mph - N/A   Clear
1:15 AM 84.7 °F 85.0 °F 61.5 °F 45% 29.92 in 10.0 mi SSE 13.8 mph 20.7 mph N/A   Clear
1:35 AM 84.2 °F 84.8 °F 61.7 °F 47% 29.92 in 10.0 mi South 12.7 mph 17.3 mph N/A   Clear
1:55 AM 84.2 °F 84.8 °F 61.9 °F 47% 29.91 in 10.0 mi South 15.0 mph 20.7 mph N/A   Clear
2:15 AM 84.2 °F 84.8 °F 62.2 °F 47% 29.91 in 10.0 mi South 15.0 mph 20.7 mph N/A   Clear
2:35 AM 83.5 °F 84.3 °F 62.6 °F 49% 29.91 in 10.0 mi South 13.8 mph 17.3 mph N/A   Clear
2:55 AM 83.3 °F 84.3 °F 62.6 °F 50% 29.92 in 10.0 mi South 13.8 mph 19.6 mph N/A   Clear
3:15 AM 82.8 °F 83.6 °F 62.6 °F 50% 29.91 in 10.0 mi South 13.8 mph 19.6 mph N/A   Clear
3:35 AM 81.7 °F 82.9 °F 63.0 °F 53% 29.91 in 10.0 mi SSE 12.7 mph 17.3 mph N/A   Clear
3:55 AM 81.5 °F 82.8 °F 63.3 °F 54% 29.91 in 10.0 mi South 12.7 mph 21.9 mph N/A   Clear
4:15 AM 81.0 °F 82.5 °F 63.7 °F 56% 29.91 in 10.0 mi South 12.7 mph 18.4 mph N/A   Clear
4:35 AM 80.6 °F 82.3 °F 64.4 °F 58% 29.92 in 10.0 mi South 12.7 mph 18.4 mph N/A   Clear
4:55 AM 79.9 °F - 64.6 °F 59% 29.93 in 10.0 mi South 12.7 mph 17.3 mph N/A   Clear
5:15 AM 79.2 °F - 64.9 °F 62% 29.93 in 10.0 mi South 11.5 mph 16.1 mph N/A   Clear
5:35 AM 78.8 °F - 65.5 °F 64% 29.93 in 10.0 mi South 11.5 mph - N/A   Clear
5:55 AM 78.6 °F - 66.4 °F 66% 29.93 in 10.0 mi South 16.1 mph 27.6 mph N/A   Clear
6:15 AM 78.1 °F - 66.6 °F 68% 29.93 in 10.0 mi South 15.0 mph 19.6 mph N/A   Clear
6:35 AM 77.7 °F - 67.1 °F 70% 29.94 in 10.0 mi South 12.7 mph 18.4 mph N/A   Scattered Clouds
6:55 AM 77.5 °F - 67.1 °F 70% 29.94 in 10.0 mi South 11.5 mph - N/A   Clear
7:15 AM 77.9 °F - 67.3 °F 70% 29.94 in 10.0 mi South 9.2 mph 16.1 mph N/A   Clear
7:35 AM 78.8 °F - 67.5 °F 68% 29.95 in 7.0 mi South 15.0 mph 19.6 mph N/A   Clear
7:55 AM 79.7 °F - 67.6 °F 66% 29.94 in 10.0 mi South 15.0 mph 21.9 mph N/A   Clear
8:15 AM 80.6 °F 83.1 °F 67.5 °F 64% 29.95 in 7.0 mi South 18.4 mph 26.5 mph N/A   Clear
8:35 AM 81.5 °F 84.2 °F 67.6 °F 63% 29.95 in 7.0 mi South 18.4 mph 24.2 mph N/A   Clear
8:55 AM 82.2 °F 84.9 °F 67.5 °F 61% 29.96 in 10.0 mi South 21.9 mph 27.6 mph N/A   Scattered Clouds
9:15 AM 83.3 °F 86.2 °F 67.6 °F 59% 29.96 in 7.0 mi SW 18.4 mph 25.3 mph N/A   Mostly Cloudy
9:35 AM 84.0 °F 86.8 °F 67.3 °F 57% 29.96 in 7.0 mi SW 19.6 mph 26.5 mph N/A   Overcast
9:55 AM 84.2 °F 87.1 °F 67.3 °F 57% 29.96 in 10.0 mi SSW 21.9 mph 29.9 mph N/A   Overcast
10:15 AM 85.1 °F 87.9 °F 67.3 °F 55% 29.95 in 7.0 mi SSW 19.6 mph 28.8 mph N/A   Mostly Cloudy
10:35 AM 86.5 °F 89.3 °F 67.3 °F 52% 29.95 in 10.0 mi South 20.7 mph 27.6 mph N/A   Scattered Clouds
10:55 AM 87.3 °F 90.2 °F 67.1 °F 51% 29.95 in 10.0 mi SSW 20.7 mph 27.6 mph N/A   Mostly Cloudy
11:15 AM 88.7 °F 91.9 °F 67.5 °F 49% 29.94 in 10.0 mi South 17.3 mph 27.6 mph N/A   Mostly Cloudy
11:35 AM 88.0 °F 91.0 °F 67.1 °F 50% 29.94 in 10.0 mi South 19.6 mph 26.5 mph N/A   Scattered Clouds
11:55 AM 89.8 °F 92.9 °F 67.1 °F 47% 29.93 in 10.0 mi South 18.4 mph 26.5 mph N/A   Scattered Clouds
12:15 PM 90.7 °F 93.6 °F 66.9 °F 45% 29.93 in 10.0 mi South 18.4 mph 28.8 mph N/A   Scattered Clouds
12:35 PM 91.4 °F 94.5 °F 66.7 °F 44% 29.92 in 10.0 mi SSW 18.4 mph 26.5 mph N/A   Clear
12:55 PM 92.8 °F 96.1 °F 66.4 °F 42% 29.91 in 10.0 mi South 15.0 mph 24.2 mph N/A   Scattered Clouds
1:15 PM 93.6 °F 96.4 °F 66.0 °F 40% 29.91 in 10.0 mi South 19.6 mph 24.2 mph N/A   Clear
1:35 PM 94.8 °F 97.6 °F 65.8 °F 38% 29.90 in 10.0 mi South 16.1 mph 23.0 mph N/A   Clear
1:55 PM 95.2 °F 97.8 °F 65.1 °F 37% 29.89 in 10.0 mi South 19.6 mph 25.3 mph N/A   Clear
2:15 PM 95.7 °F 99.2 °F 66.0 °F 38% 29.88 in 10.0 mi South 19.6 mph 23.0 mph N/A   Clear
2:35 PM 96.3 °F 99.1 °F 64.9 °F 36% 29.88 in 10.0 mi SSE 12.7 mph 24.2 mph N/A   Clear
2:55 PM 97.7 °F 100.0 °F 63.9 °F 33% 29.87 in 10.0 mi SSW 16.1 mph 24.2 mph N/A   Clear
3:15 PM 98.2 °F 101.0 °F 64.4 °F 33% 29.87 in 10.0 mi South 17.3 mph 26.5 mph N/A   Clear
3:35 PM 98.1 °F 100.1 °F 63.7 °F 32% 29.86 in 10.0 mi South 17.3 mph 26.5 mph N/A   Clear
3:55 PM 97.9 °F 99.3 °F 62.4 °F 31% 29.85 in 10.0 mi South 15.0 mph 24.2 mph N/A   Clear
4:15 PM 99.7 °F 101.2 °F 62.6 °F 29% 29.84 in 10.0 mi South 17.3 mph - N/A   Clear
4:18 PM 100.4 °F 102.4 °F 62.6 °F 29% 29.84 in 10.0 mi South 16.1 mph 21.9 mph N/A   Clear
4:35 PM 99.7 °F 100.7 °F 61.3 °F 28% 29.84 in 10.0 mi SSW 18.4 mph 24.2 mph N/A   Clear
4:55 PM 99.7 °F 100.1 °F 60.4 °F 27% 29.84 in 10.0 mi South 15.0 mph 26.5 mph N/A   Clear
5:15 PM 100.0 °F 99.7 °F 58.6 °F 25% 29.83 in 10.0 mi South 11.5 mph 24.2 mph N/A   Clear
5:35 PM 100.0 °F 100.2 °F 59.0 °F 26% 29.82 in 10.0 mi South 12.7 mph 23.0 mph N/A   Clear
5:55 PM 99.3 °F 98.6 °F 57.7 °F 25% 29.82 in 10.0 mi SSE 16.1 mph 19.6 mph N/A   Clear
6:15 PM 98.1 °F 97.2 °F 57.2 °F 26% 29.82 in 10.0 mi South 9.2 mph - N/A   Clear
6:35 PM 99.0 °F 98.1 °F 57.0 °F 25% 29.81 in 10.0 mi South 8.1 mph 18.4 mph N/A   Clear
6:55 PM 98.6 °F 97.2 °F 55.4 °F 24% 29.81 in 10.0 mi South 11.5 mph 18.4 mph N/A   Clear
7:15 PM 98.1 °F 96.1 °F 53.8 °F 23% 29.81 in 10.0 mi South 12.7 mph 19.6 mph N/A   Clear
7:35 PM 97.9 °F 95.8 °F 53.8 °F 23% 29.81 in 10.0 mi South 12.7 mph 17.3 mph N/A   Clear
7:55 PM 97.7 °F 95.6 °F 54.1 °F 23% 29.81 in 10.0 mi SSE 11.5 mph 17.3 mph N/A   Clear
8:15 PM 96.3 °F 94.4 °F 55.6 °F 25% 29.81 in 10.0 mi SSE 10.4 mph - N/A   Clear
8:35 PM 95.4 °F 93.8 °F 56.3 °F 27% 29.81 in 10.0 mi SSE 15.0 mph 20.7 mph N/A   Clear
8:55 PM 94.1 °F 92.8 °F 56.8 °F 29% 29.81 in 10.0 mi SSE 16.1 mph 20.7 mph N/A   Clear
9:15 PM 93.2 °F 91.9 °F 57.4 °F 30% 29.82 in 10.0 mi SSE 15.0 mph 18.4 mph N/A   Clear
9:35 PM 92.5 °F 91.3 °F 58.1 °F 31% 29.82 in 10.0 mi SSE 13.8 mph 20.7 mph N/A   Clear
9:55 PM 91.6 °F 90.4 °F 58.1 °F 32% 29.82 in 10.0 mi SSE 12.7 mph 19.6 mph N/A   Clear
10:15 PM 91.4 °F 90.1 °F 58.1 °F 32% 29.83 in 10.0 mi South 13.8 mph 21.9 mph N/A   Clear
10:35 PM 90.7 °F 89.5 °F 58.1 °F 33% 29.84 in 10.0 mi South 12.7 mph - N/A   Clear
10:55 PM 89.8 °F 88.6 °F 58.1 °F 34% 29.85 in 10.0 mi South 13.8 mph 19.6 mph N/A   Clear
11:15 PM 89.6 °F 88.6 °F 58.3 °F 35% 29.85 in 10.0 mi South 15.0 mph 20.7 mph N/A   Clear
11:35 PM 89.2 °F 88.2 °F 58.6 °F 35% 29.85 in 10.0 mi South 15.0 mph 21.9 mph N/A   Clear
11:55 PM 88.7 °F 88.0 °F 59.0 °F 37% 29.84 in 10.0 mi South 16.1 mph 21.9 mph N/A   Clear